createdAt,value
2024-02-22T00:00:21.311Z,1.40
2024-02-22T00:02:49.725Z,1.55
2024-02-22T00:05:17.304Z,1.55
2024-02-22T00:07:44.817Z,1.40
2024-02-22T00:10:13.877Z,1.50
2024-02-22T00:12:42.529Z,1.40
2024-02-22T00:15:12.012Z,1.40
2024-02-22T00:17:39.470Z,1.48
2024-02-22T00:20:07.936Z,1.55
2024-02-22T00:22:35.293Z,1.42
2024-02-22T00:25:02.377Z,1.25
2024-02-22T00:27:29.854Z,1.30
2024-02-22T00:29:57.197Z,1.33
2024-02-22T00:32:24.466Z,1.30
2024-02-22T00:34:51.798Z,1.30
2024-02-22T00:37:19.088Z,1.33
2024-02-22T00:39:49.789Z,1.27
2024-02-22T00:42:17.100Z,1.38
2024-02-22T00:44:44.109Z,1.42
2024-02-22T00:47:11.483Z,1.35
2024-02-22T00:49:38.581Z,1.45
2024-02-22T00:52:09.168Z,1.20
2024-02-22T00:54:36.734Z,0.90
2024-02-22T00:57:03.982Z,1.58
2024-02-22T00:59:33.841Z,1.08
2024-02-22T01:02:03.137Z,1.65
2024-02-22T01:04:30.720Z,1.25
2024-02-22T01:07:00.258Z,1.58
2024-02-22T01:09:27.696Z,1.30
2024-02-22T01:11:55.347Z,1.30
2024-02-22T01:14:24.407Z,1.42
2024-02-22T01:16:51.833Z,1.30
2024-02-22T01:19:19.490Z,1.27
2024-02-22T01:21:47.485Z,1.17
2024-02-22T01:24:14.526Z,1.55
2024-02-22T01:26:41.786Z,1.40
2024-02-22T01:29:09.164Z,1.55
2024-02-22T01:31:36.739Z,1.42
2024-02-22T01:34:04.260Z,1.65
2024-02-22T01:36:31.186Z,1.23
2024-02-22T01:38:58.517Z,1.27
2024-02-22T01:41:28.854Z,1.40
2024-02-22T01:43:57.280Z,1.20
2024-02-22T01:46:24.738Z,1.50
2024-02-22T01:48:52.351Z,1.50
2024-02-22T01:51:20.254Z,1.45
2024-02-22T01:53:50.351Z,1.10
2024-02-22T01:56:20.532Z,1.40
2024-02-22T01:58:49.848Z,1.40
2024-02-22T02:01:24.212Z,1.10
2024-02-22T02:03:52.169Z,1.10
2024-02-22T02:06:19.415Z,1.17
2024-02-22T02:08:47.004Z,1.30
2024-02-22T02:11:14.746Z,1.50
2024-02-22T02:13:41.679Z,1.13
2024-02-22T02:16:09.071Z,1.27
2024-02-22T02:18:36.610Z,1.60
2024-02-22T02:21:06.790Z,1.50
2024-02-22T02:23:45.612Z,1.30
2024-02-22T02:26:13.936Z,1.13
2024-02-22T02:28:41.356Z,1.42
2024-02-22T02:31:09.049Z,1.30
2024-02-22T02:33:36.427Z,1.05
2024-02-22T02:36:03.842Z,1.33
2024-02-22T02:38:31.672Z,1.30
2024-02-22T02:40:58.970Z,1.55
2024-02-22T02:43:26.310Z,1.60
2024-02-22T02:45:53.572Z,1.27
2024-02-22T02:48:21.241Z,1.23
2024-02-22T02:50:48.904Z,1.20
2024-02-22T02:53:16.554Z,1.20
2024-02-22T02:55:43.909Z,1.27
2024-02-22T02:58:11.246Z,1.13
2024-02-22T03:00:38.193Z,1.58
2024-02-22T03:03:05.485Z,0.90
2024-02-22T03:05:32.548Z,1.67
2024-02-22T03:08:00.325Z,1.40
2024-02-22T03:10:27.686Z,1.23
2024-02-22T03:12:55.016Z,1.10
2024-02-22T03:15:22.364Z,1.50
2024-02-22T03:17:49.792Z,1.38
2024-02-22T03:20:18.740Z,1.33
2024-02-22T03:22:47.505Z,1.10
2024-02-22T03:25:14.520Z,1.23
2024-02-22T03:27:41.801Z,1.33
2024-02-22T03:30:10.408Z,1.38
2024-02-22T03:32:37.862Z,0.80
2024-02-22T03:35:11.209Z,1.20
2024-02-22T03:37:39.680Z,0.90
2024-02-22T03:40:07.278Z,1.00
2024-02-22T03:42:35.000Z,0.90
2024-02-22T03:45:02.774Z,1.23
2024-02-22T03:47:30.131Z,1.08
2024-02-22T03:49:57.473Z,1.20
2024-02-22T03:52:25.150Z,1.10
2024-02-22T03:54:52.712Z,1.20
2024-02-22T03:57:19.991Z,1.23
2024-02-22T03:59:47.316Z,1.55
2024-02-22T04:02:15.968Z,1.15
2024-02-22T04:04:50.277Z,1.30
2024-02-22T04:07:17.783Z,1.20
2024-02-22T04:09:46.576Z,1.27
2024-02-22T04:12:13.646Z,1.20
2024-02-22T04:14:41.059Z,1.38
2024-02-22T04:17:08.046Z,1.38
2024-02-22T04:19:35.598Z,1.52
2024-02-22T04:22:03.699Z,1.58
2024-02-22T04:24:30.961Z,1.20
2024-02-22T04:27:00.387Z,1.20
2024-02-22T04:29:27.859Z,0.95
2024-02-22T04:31:55.192Z,1.33
2024-02-22T04:34:22.238Z,1.42
2024-02-22T04:36:49.560Z,1.17
2024-02-22T04:39:16.841Z,1.20
2024-02-22T04:41:44.994Z,1.35
2024-02-22T04:44:14.427Z,1.27
2024-02-22T04:46:41.847Z,1.08
2024-02-22T04:49:11.097Z,1.10
2024-02-22T04:51:38.802Z,1.20
2024-02-22T04:54:06.132Z,1.20
2024-02-22T04:56:33.442Z,1.10
2024-02-22T04:59:00.632Z,1.20
2024-02-22T05:01:28.460Z,1.20
2024-02-22T05:03:56.092Z,1.33
2024-02-22T05:06:23.844Z,1.38
2024-02-22T05:08:51.931Z,1.17
2024-02-22T05:11:19.774Z,0.98
2024-02-22T05:13:46.760Z,1.30
2024-02-22T05:16:15.750Z,1.20
2024-02-22T05:18:43.080Z,1.23
2024-02-22T05:21:10.457Z,1.30
2024-02-22T05:23:38.024Z,1.25
2024-02-22T05:26:05.491Z,1.35
2024-02-22T05:28:32.482Z,1.10
2024-02-22T05:31:00.489Z,1.00
2024-02-22T05:33:28.687Z,1.10
2024-02-22T05:35:56.041Z,1.02
2024-02-22T05:38:22.998Z,1.60
2024-02-22T05:40:51.315Z,0.90
2024-02-22T05:43:18.248Z,0.95
2024-02-22T05:45:46.784Z,1.00
2024-02-22T05:48:14.830Z,1.17
2024-02-22T05:50:42.466Z,1.10
2024-02-22T05:53:10.990Z,1.30
2024-02-22T05:55:38.938Z,1.20
2024-02-22T05:58:07.737Z,1.15
2024-02-22T06:00:35.193Z,1.17
2024-02-22T06:03:05.906Z,0.90
2024-02-22T06:05:35.671Z,1.02
2024-02-22T06:08:03.100Z,1.33
2024-02-22T06:10:30.412Z,1.17
2024-02-22T06:12:58.020Z,1.30
2024-02-22T06:15:26.209Z,1.30
2024-02-22T06:17:53.654Z,1.23
2024-02-22T06:20:21.107Z,1.50
2024-02-22T06:22:48.538Z,1.10
2024-02-22T06:25:15.574Z,0.88
2024-02-22T06:27:45.904Z,1.27
2024-02-22T06:30:15.683Z,1.00
2024-02-22T06:32:43.404Z,1.05
2024-02-22T06:35:11.043Z,0.93
2024-02-22T06:37:38.838Z,1.25
2024-02-22T06:40:08.917Z,1.10
2024-02-22T06:42:36.528Z,1.10
2024-02-22T06:45:04.585Z,1.10
2024-02-22T06:47:31.904Z,0.88
2024-02-22T06:49:59.307Z,1.10
2024-02-22T06:52:26.689Z,1.15
2024-02-22T06:54:54.042Z,1.27
2024-02-22T06:57:21.407Z,1.20
2024-02-22T06:59:48.735Z,1.23
2024-02-22T07:02:17.231Z,1.02
2024-02-22T07:04:45.270Z,1.33
2024-02-22T07:07:13.232Z,1.20
2024-02-22T07:09:41.952Z,0.95
2024-02-22T07:12:09.850Z,0.93
2024-02-22T07:14:37.360Z,1.08
2024-02-22T07:17:04.802Z,1.08
2024-02-22T07:19:32.291Z,0.73
2024-02-22T07:21:59.998Z,1.10
2024-02-22T07:24:27.362Z,0.93
2024-02-22T07:26:56.021Z,1.17
2024-02-22T07:29:25.282Z,0.90
2024-02-22T07:31:52.711Z,1.10
2024-02-22T07:34:20.151Z,1.30
2024-02-22T07:36:47.677Z,1.10
2024-02-22T07:39:15.004Z,1.23
2024-02-22T07:41:45.149Z,1.25
2024-02-22T07:44:13.304Z,1.10
2024-02-22T07:46:40.859Z,1.00
2024-02-22T07:49:08.572Z,0.95
2024-02-22T07:51:46.335Z,1.10
2024-02-22T07:54:21.664Z,1.05
2024-02-22T07:56:49.432Z,1.10
2024-02-22T07:59:16.875Z,1.10
2024-02-22T08:01:44.572Z,1.27
2024-02-22T08:04:13.454Z,1.27
2024-02-22T08:06:41.518Z,1.20
2024-02-22T08:09:09.129Z,0.90
2024-02-22T08:11:37.080Z,1.27
2024-02-22T08:14:04.860Z,1.20
2024-02-22T08:16:32.303Z,1.20
2024-02-22T08:19:00.433Z,1.35
2024-02-22T08:21:28.389Z,0.90
2024-02-22T08:23:56.920Z,1.30
2024-02-22T08:26:24.551Z,1.05
2024-02-22T08:28:52.028Z,1.27
2024-02-22T08:31:19.368Z,1.30
2024-02-22T08:33:49.261Z,1.38
2024-02-22T08:36:17.417Z,0.90
2024-02-22T08:38:44.772Z,1.45
2024-02-22T08:41:12.201Z,1.30
2024-02-22T08:43:40.585Z,1.08
2024-02-22T08:46:07.902Z,1.40
2024-02-22T08:48:37.213Z,1.35
2024-02-22T08:51:05.198Z,1.25
2024-02-22T08:53:33.001Z,1.23
2024-02-22T08:56:00.469Z,1.13
2024-02-22T08:58:30.681Z,1.38
2024-02-22T09:00:58.136Z,1.20
2024-02-22T09:03:27.878Z,1.20
2024-02-22T09:05:55.266Z,1.33
2024-02-22T09:08:23.317Z,1.30
2024-02-22T09:10:50.803Z,1.50
2024-02-22T09:13:18.276Z,1.17
2024-02-22T09:15:52.537Z,1.45
2024-02-22T09:18:20.465Z,1.17
2024-02-22T09:20:49.668Z,1.27
2024-02-22T09:23:17.993Z,1.55
2024-02-22T09:25:45.520Z,1.40
2024-02-22T09:28:12.970Z,1.17
2024-02-22T09:30:40.864Z,1.38
2024-02-22T09:33:09.265Z,1.30
2024-02-22T09:35:38.020Z,1.30
2024-02-22T09:38:06.280Z,1.17
2024-02-22T09:40:35.238Z,1.15
2024-02-22T09:43:03.178Z,1.48
2024-02-22T09:45:30.975Z,1.27
2024-02-22T09:47:58.743Z,1.20
2024-02-22T09:50:26.201Z,0.95
2024-02-22T09:52:53.666Z,1.15
2024-02-22T09:55:21.302Z,1.00
2024-02-22T09:57:49.814Z,1.08
2024-02-22T10:00:20.011Z,1.13
2024-02-22T10:02:48.340Z,1.33
2024-02-22T10:05:16.769Z,1.30
2024-02-22T10:07:44.584Z,0.90
2024-02-22T10:10:12.710Z,1.10
2024-02-22T10:12:46.047Z,0.95
2024-02-22T10:15:22.440Z,0.93
2024-02-22T10:17:50.295Z,0.95
2024-02-22T10:20:19.667Z,0.93
2024-02-22T10:22:48.055Z,1.17
2024-02-22T10:25:16.453Z,1.10
2024-02-22T10:27:50.614Z,1.10
2024-02-22T10:30:21.145Z,0.77
2024-02-22T10:32:50.302Z,0.95
2024-02-22T10:35:17.794Z,1.10
2024-02-22T10:37:45.435Z,1.17
2024-02-22T10:40:13.650Z,1.02
2024-02-22T10:42:41.750Z,0.90
2024-02-22T10:45:09.951Z,0.95
2024-02-22T10:47:38.637Z,0.90
2024-02-22T10:50:06.819Z,0.90
2024-02-22T10:52:37.465Z,1.20
2024-02-22T10:55:08.190Z,1.00
2024-02-22T10:57:36.416Z,0.88
2024-02-22T11:00:04.471Z,1.02
2024-02-22T11:02:32.867Z,1.00
2024-02-22T11:05:04.832Z,0.90
2024-02-22T11:07:33.317Z,1.00
2024-02-22T11:10:12.078Z,0.90
2024-02-22T11:12:44.166Z,1.10
2024-02-22T11:15:11.771Z,1.00
2024-02-22T11:17:40.558Z,0.90
2024-02-22T11:20:09.547Z,1.00
2024-02-22T11:22:39.661Z,1.00
2024-02-22T11:25:11.156Z,1.00
2024-02-22T11:27:38.527Z,0.90
2024-02-22T11:30:18.388Z,1.00
2024-02-22T11:32:49.754Z,1.20
2024-02-22T11:35:17.256Z,1.00
2024-02-22T11:37:44.653Z,0.90
2024-02-22T11:40:20.111Z,0.82
2024-02-22T11:42:56.586Z,1.17
2024-02-22T11:45:24.144Z,1.15
2024-02-22T11:47:51.665Z,1.20
2024-02-22T11:50:21.267Z,0.88
2024-02-22T11:52:49.217Z,1.08
2024-02-22T11:55:17.107Z,1.60
2024-02-22T11:57:44.470Z,1.00
2024-02-22T12:00:11.937Z,1.00
2024-02-22T12:02:40.299Z,0.90
2024-02-22T12:05:11.332Z,0.90
2024-02-22T12:07:42.364Z,1.20
2024-02-22T12:10:11.473Z,1.20
2024-02-22T12:12:44.605Z,0.98
2024-02-22T12:15:21.468Z,1.00
2024-02-22T12:17:51.799Z,1.00
2024-02-22T12:20:23.011Z,1.05
2024-02-22T12:22:51.752Z,1.00
2024-02-22T12:25:19.246Z,0.80
2024-02-22T12:27:52.300Z,1.00
2024-02-22T12:30:20.023Z,1.00
2024-02-22T12:32:53.612Z,1.20
2024-02-22T12:35:23.235Z,1.00
2024-02-22T12:37:51.354Z,1.17
2024-02-22T12:40:19.039Z,1.23
2024-02-22T12:42:55.167Z,0.90
2024-02-22T12:45:22.232Z,1.02
2024-02-22T12:47:50.146Z,1.02
2024-02-22T12:50:17.684Z,1.00
2024-02-22T12:52:45.434Z,1.05
2024-02-22T12:55:13.104Z,1.10
2024-02-22T12:57:40.439Z,1.38
2024-02-22T13:00:07.998Z,1.00
2024-02-22T13:02:38.300Z,0.90
2024-02-22T13:05:07.003Z,1.25
2024-02-22T13:07:34.906Z,1.30
2024-02-22T13:10:02.361Z,1.00
2024-02-22T13:12:31.760Z,1.42
2024-02-22T13:14:59.047Z,1.40
2024-02-22T13:17:26.430Z,1.10
2024-02-22T13:19:53.853Z,1.10
2024-02-22T13:22:21.171Z,1.00
2024-02-22T13:24:48.478Z,1.30
2024-02-22T13:27:18.665Z,0.77
2024-02-22T13:29:45.948Z,1.10
2024-02-22T13:32:13.427Z,1.42
2024-02-22T13:34:40.832Z,1.88
2024-02-22T13:37:08.284Z,1.33
2024-02-22T13:39:35.846Z,1.33
2024-02-22T13:42:02.926Z,0.93
2024-02-22T13:44:31.459Z,1.02
2024-02-22T13:46:59.297Z,1.52
2024-02-22T13:49:26.887Z,0.98
2024-02-22T13:52:04.501Z,1.20
2024-02-22T13:54:38.218Z,1.17
2024-02-22T13:57:05.918Z,1.00
2024-02-22T13:59:33.364Z,1.20
2024-02-22T14:02:00.790Z,1.20
2024-02-22T14:04:28.271Z,1.27
2024-02-22T14:06:55.722Z,1.13
2024-02-22T14:09:22.656Z,1.30
2024-02-22T14:11:50.213Z,1.10
2024-02-22T14:14:17.784Z,1.13
2024-02-22T14:16:46.576Z,1.00
2024-02-22T14:19:18.951Z,1.35
2024-02-22T14:21:46.775Z,1.35
2024-02-22T14:24:14.504Z,1.17
2024-02-22T14:26:45.713Z,1.20
2024-02-22T14:29:13.081Z,1.20
2024-02-22T14:31:41.568Z,1.10
2024-02-22T14:34:09.023Z,1.10
2024-02-22T14:36:36.388Z,1.30
2024-02-22T14:39:04.516Z,1.40
2024-02-22T14:41:32.264Z,1.10
2024-02-22T14:43:59.673Z,1.00
2024-02-22T14:46:28.426Z,1.00
2024-02-22T14:48:55.752Z,1.45
2024-02-22T14:51:23.154Z,1.35
2024-02-22T14:53:50.516Z,1.20
2024-02-22T14:56:18.047Z,1.20
2024-02-22T14:58:45.859Z,1.30
2024-02-22T15:01:13.787Z,1.13
2024-02-22T15:03:41.132Z,1.30
2024-02-22T15:06:10.786Z,1.10
2024-02-22T15:08:44.080Z,1.40
2024-02-22T15:11:11.453Z,1.15
2024-02-22T15:13:40.674Z,1.25
2024-02-22T15:16:08.135Z,1.20
2024-02-22T15:18:39.604Z,1.30
2024-02-22T15:21:07.755Z,1.13
2024-02-22T15:23:39.877Z,1.10
2024-02-22T15:26:09.079Z,1.30
2024-02-22T15:28:36.614Z,1.13
2024-02-22T15:33:02.253Z,1.00
2024-02-22T15:35:30.611Z,1.15
2024-02-22T15:38:00.252Z,1.27
2024-02-22T15:40:27.595Z,1.33
2024-02-22T15:42:54.888Z,0.93
2024-02-22T15:45:22.966Z,1.20
2024-02-22T15:47:50.549Z,1.38
2024-02-22T15:50:17.986Z,1.40
2024-02-22T15:52:45.378Z,1.40
2024-02-22T15:55:13.660Z,1.25
2024-02-22T15:57:41.007Z,1.52
2024-02-22T16:00:08.646Z,1.50
2024-02-22T16:02:38.988Z,1.30
2024-02-22T16:05:06.794Z,1.65
2024-02-22T16:07:34.640Z,1.20
2024-02-22T16:10:02.682Z,1.02
2024-02-22T16:12:30.388Z,1.17
2024-02-22T16:14:59.922Z,1.30
2024-02-22T16:17:27.376Z,1.10
2024-02-22T16:19:54.778Z,1.38
2024-02-22T16:22:22.070Z,1.25
2024-02-22T16:24:48.998Z,1.50
2024-02-22T16:27:16.266Z,1.25
2024-02-22T16:29:43.590Z,1.27
2024-02-22T16:32:10.885Z,1.35
2024-02-22T16:34:39.804Z,1.42
2024-02-22T16:37:13.984Z,1.20
2024-02-22T16:39:45.086Z,1.55
2024-02-22T16:42:12.812Z,1.27
2024-02-22T16:44:43.457Z,1.55
2024-02-22T16:47:15.596Z,1.67
2024-02-22T16:49:43.804Z,1.20
2024-02-22T16:52:11.168Z,1.55
2024-02-22T16:54:38.681Z,1.58
2024-02-22T16:57:06.804Z,1.70
2024-02-22T16:59:34.513Z,1.35
2024-02-22T17:02:03.858Z,1.70
2024-02-22T17:04:31.366Z,1.50
2024-02-22T17:07:02.277Z,1.35
2024-02-22T17:09:29.770Z,1.52
2024-02-22T17:11:57.416Z,1.73
2024-02-22T17:14:25.256Z,1.48
2024-02-22T17:16:54.031Z,1.50
2024-02-22T17:19:21.708Z,1.45
2024-02-22T17:21:54.162Z,1.42
2024-02-22T17:24:22.878Z,1.67
2024-02-22T17:26:50.231Z,1.45
2024-02-22T17:29:17.806Z,1.30
2024-02-22T17:31:44.822Z,1.38
2024-02-22T17:34:12.504Z,1.40
2024-02-22T17:36:40.169Z,1.50
2024-02-22T17:39:07.944Z,1.60
2024-02-22T17:41:35.502Z,1.60
2024-02-22T17:44:03.261Z,1.70
2024-02-22T17:46:30.797Z,1.30
2024-02-22T17:48:58.322Z,1.40
2024-02-22T17:51:26.585Z,1.33
2024-02-22T17:53:55.544Z,1.40
2024-02-22T17:56:27.196Z,1.77
2024-02-22T17:58:56.879Z,1.35
2024-02-22T18:01:25.327Z,1.50
2024-02-22T18:03:52.814Z,1.70
2024-02-22T18:06:20.275Z,1.73
2024-02-22T18:08:47.643Z,1.77
2024-02-22T18:11:15.180Z,1.67
2024-02-22T18:13:42.654Z,1.80
2024-02-22T18:16:11.973Z,1.75
2024-02-22T18:18:41.494Z,1.30
2024-02-22T18:21:08.912Z,1.50
2024-02-22T18:23:36.810Z,1.70
2024-02-22T18:26:04.799Z,1.70
2024-02-22T18:28:32.129Z,1.85
2024-02-22T18:30:59.477Z,1.48
2024-02-22T18:33:27.988Z,1.88
2024-02-22T18:35:55.495Z,1.65
2024-02-22T18:38:23.282Z,1.80
2024-02-22T18:40:51.055Z,1.50
2024-02-22T18:43:18.095Z,1.60
2024-02-22T18:45:46.120Z,1.90
2024-02-22T18:48:13.745Z,1.67
2024-02-22T18:50:41.389Z,1.52
2024-02-22T18:53:09.172Z,1.77
2024-02-22T18:55:41.990Z,1.58
2024-02-22T18:58:09.957Z,1.88
2024-02-22T19:00:37.824Z,1.80
2024-02-22T19:03:10.724Z,1.58
2024-02-22T19:05:39.559Z,1.80
2024-02-22T19:08:10.800Z,1.50
2024-02-22T19:10:40.031Z,1.77
2024-02-22T19:13:07.635Z,1.83
2024-02-22T19:15:34.934Z,1.85
2024-02-22T19:18:03.783Z,2.08
2024-02-22T19:20:31.180Z,1.50
2024-02-22T19:22:58.641Z,1.70
2024-02-22T19:25:25.936Z,1.85
2024-02-22T19:27:53.391Z,1.60
2024-02-22T19:30:20.863Z,1.80
2024-02-22T19:32:48.965Z,1.40
2024-02-22T19:35:21.468Z,1.60
2024-02-22T19:37:51.291Z,1.52
2024-02-22T19:40:19.542Z,1.70
2024-02-22T19:42:47.202Z,1.40
2024-02-22T19:45:16.845Z,1.98
2024-02-22T19:47:47.186Z,1.70
2024-02-22T19:50:15.289Z,1.52
2024-02-22T19:52:42.606Z,1.60
2024-02-22T19:55:09.905Z,1.60
2024-02-22T19:57:37.287Z,1.40
2024-02-22T20:00:06.261Z,1.58
2024-02-22T20:02:39.188Z,1.33
2024-02-22T20:05:06.649Z,1.60
2024-02-22T20:07:35.680Z,1.63
2024-02-22T20:10:06.186Z,1.60
2024-02-22T20:12:33.605Z,1.52
2024-02-22T20:15:00.521Z,1.70
2024-02-22T20:17:28.147Z,1.73
2024-02-22T20:19:56.067Z,1.58
2024-02-22T20:22:23.465Z,1.40
2024-02-22T20:24:50.873Z,2.03
2024-02-22T20:27:18.234Z,1.38
2024-02-22T20:29:45.573Z,1.40
2024-02-22T20:32:13.113Z,1.70
2024-02-22T20:34:40.624Z,1.48
2024-02-22T20:37:07.570Z,1.60
2024-02-22T20:39:35.001Z,1.83
2024-02-22T20:42:02.932Z,1.33
2024-02-22T20:44:30.381Z,1.42
2024-02-22T20:46:57.858Z,1.90
2024-02-22T20:49:25.397Z,1.52
2024-02-22T20:51:52.747Z,1.20
2024-02-22T20:54:21.467Z,1.23
2024-02-22T20:56:48.792Z,1.48
2024-02-22T20:59:18.348Z,1.70
2024-02-22T21:01:45.893Z,1.52
2024-02-22T21:04:14.151Z,1.75
2024-02-22T21:06:41.555Z,1.63
2024-02-22T21:09:12.348Z,1.67
2024-02-22T21:11:39.778Z,1.58
2024-02-22T21:14:07.176Z,1.27
2024-02-22T21:16:35.217Z,1.40
2024-02-22T21:19:03.450Z,1.15
2024-02-22T21:21:31.503Z,1.00
2024-02-22T21:23:58.937Z,1.27
2024-02-22T21:26:26.457Z,0.82
2024-02-22T21:28:53.813Z,0.95
2024-02-22T21:31:23.236Z,1.10
2024-02-22T21:33:51.288Z,0.80
2024-02-22T21:36:19.149Z,0.98
2024-02-22T21:38:46.417Z,1.00
2024-02-22T21:41:14.618Z,0.80
2024-02-22T21:43:42.321Z,1.00
2024-02-22T21:46:09.225Z,1.00
2024-02-22T21:48:37.073Z,1.13
2024-02-22T21:51:08.075Z,0.82
2024-02-22T21:53:35.934Z,0.90
2024-02-22T21:56:03.558Z,0.98
2024-02-22T21:58:31.393Z,0.90
2024-02-22T22:00:58.771Z,1.23
2024-02-22T22:03:27.079Z,0.88
2024-02-22T22:05:54.515Z,0.80
2024-02-22T22:08:25.890Z,0.98
2024-02-22T22:10:53.852Z,0.93
2024-02-22T22:13:24.174Z,1.00
2024-02-22T22:15:51.650Z,0.98
2024-02-22T22:18:19.638Z,1.17
2024-02-22T22:20:46.942Z,1.08
2024-02-22T22:23:14.512Z,0.80
2024-02-22T22:25:41.948Z,0.80
2024-02-22T22:28:09.229Z,0.93
2024-02-22T22:30:36.615Z,1.30
2024-02-22T22:33:04.077Z,0.80
2024-02-22T22:35:32.204Z,0.88
2024-02-22T22:37:59.140Z,0.90
2024-02-22T22:40:26.433Z,1.05
2024-02-22T22:42:53.270Z,1.00
2024-02-22T22:45:20.611Z,1.00
2024-02-22T22:47:48.403Z,0.85
2024-02-22T22:50:15.495Z,0.88
2024-02-22T22:52:43.417Z,1.10
2024-02-22T22:55:10.783Z,1.02
2024-02-22T22:57:38.129Z,1.10
2024-02-22T23:00:10.252Z,1.15
2024-02-22T23:02:37.621Z,1.10
2024-02-22T23:05:05.150Z,1.00
2024-02-22T23:07:32.574Z,0.90
2024-02-22T23:10:00.450Z,0.95
2024-02-22T23:12:27.811Z,0.85
2024-02-22T23:14:57.410Z,1.00
2024-02-22T23:17:25.195Z,0.98
2024-02-22T23:19:53.310Z,1.10
2024-02-22T23:22:20.631Z,1.15
2024-02-22T23:24:47.939Z,1.10
2024-02-22T23:27:15.253Z,1.10
2024-02-22T23:29:42.906Z,1.02
2024-02-22T23:32:10.230Z,1.10
2024-02-22T23:34:37.618Z,1.02
2024-02-22T23:37:05.956Z,1.33
2024-02-22T23:39:34.139Z,1.00
2024-02-22T23:42:01.545Z,1.08
2024-02-22T23:44:29.134Z,1.10
2024-02-22T23:46:56.611Z,1.30
2024-02-22T23:49:24.001Z,1.00
2024-02-22T23:51:51.376Z,1.02
2024-02-22T23:54:18.740Z,1.10
2024-02-22T23:56:49.074Z,1.20
2024-02-22T23:59:19.090Z,1.10
